Time;durP1;ratioP1;P1;durP2;ratioP2;P2;SDS_P1;SDS_P2;PMS_P1;PMS_P2;Temp;Humidity;BMP_temperature;BMP_pressure;BME280_temperature;BME280_humidity;BME280_pressure;Samples;Min_cycle;Max_cycle;Signal;HPM_P1;HPM_P2
2022/09/04 00:00:18;;;;;;;58.13;30.35;;;;;;;7.27;99.10;100049.16;1706215;82;21051;-72
2022/09/04 00:03:14;;;;;;;59.65;31.40;;;;;;;7.35;99.81;100045.02;1728428;82;20992;-70
2022/09/04 00:06:00;;;;;;;58.63;31.57;;;;;;;7.42;100.00;100040.61;1714153;82;20888;-71
2022/09/04 00:08:50;;;;;;;58.50;29.35;;;;;;;7.50;100.00;100041.38;1708428;82;21141;-71
2022/09/04 00:11:59;;;;;;;61.00;30.25;;;;;;;7.57;100.00;100045.41;1695038;82;21006;-71
2022/09/04 00:15:00;;;;;;;59.08;29.30;;;;;;;7.63;100.00;100047.00;1719274;82;21137;-71
2022/09/04 00:17:39;;;;;;;57.45;29.10;;;;;;;7.75;100.00;100047.19;1715517;82;21411;-70
2022/09/04 00:20:34;;;;;;;61.68;29.67;;;;;;;7.84;100.00;100044.94;1720266;82;21447;-69
2022/09/04 00:23:13;;;;;;;52.05;27.40;;;;;;;7.93;100.00;100041.04;1713532;82;22477;-69
2022/09/04 00:26:35;;;;;;;52.98;27.95;;;;;;;8.03;100.00;100042.88;1728585;82;20912;-69
2022/09/04 00:29:12;;;;;;;55.17;27.55;;;;;;;8.09;100.00;100050.72;1719020;82;21491;-72
2022/09/04 00:31:49;;;;;;;55.83;27.93;;;;;;;8.15;100.00;100052.86;1658400;82;21038;-72
2022/09/04 00:34:56;;;;;;;54.15;27.52;;;;;;;8.19;100.00;100053.91;1734732;82;20856;-71
2022/09/04 00:37:36;;;;;;;54.20;25.40;;;;;;;8.24;100.00;100057.42;1699511;82;20987;-71
2022/09/04 00:40:31;;;;;;;50.40;27.20;;;;;;;8.33;100.00;100059.56;1723585;82;20990;-71
2022/09/04 00:43:30;;;;;;;51.45;26.60;;;;;;;8.38;100.00;100056.23;1713651;82;20880;-71
2022/09/04 00:46:22;;;;;;;43.87;25.05;;;;;;;8.40;100.00;100056.75;1707657;82;21577;-73
2022/09/04 00:49:21;;;;;;;50.98;26.52;;;;;;;8.43;100.00;100060.83;1716909;82;21470;-73
2022/09/04 00:52:34;;;;;;;48.70;25.32;;;;;;;8.47;100.00;100056.42;1717191;82;21453;-71
2022/09/04 00:55:12;;;;;;;;;;;;;;;8.50;100.00;100058.02;1724154;82;21033;-71
2022/09/04 00:58:07;;;;;;;44.15;23.67;;;;;;;8.54;100.00;100052.78;1728305;82;20424;-73
2022/09/04 01:00:41;;;;;;;45.00;23.40;;;;;;;8.55;100.00;100049.77;1713172;82;21012;-72
2022/09/04 01:03:38;;;;;;;43.08;22.50;;;;;;;8.57;100.00;100050.84;1737936;82;20872;-71
2022/09/04 01:06:15;;;;;;;44.85;22.52;;;;;;;8.56;100.00;100050.02;1723245;82;21070;-72
2022/09/04 01:09:11;;;;;;;38.98;21.68;;;;;;;8.56;100.00;100054.13;1720472;82;20972;-71
2022/09/04 01:12:18;;;;;;;38.58;21.90;;;;;;;8.52;100.00;100049.52;1720986;81;20900;-72
2022/09/04 01:15:13;;;;;;;40.17;21.23;;;;;;;8.46;100.00;100050.13;1726913;82;21010;-71
2022/09/04 01:17:49;;;;;;;;;;;;;;;8.37;100.00;100046.39;1720472;81;21036;-72
2022/09/04 01:20:53;;;;;;;41.35;21.50;;;;;;;8.27;100.00;100047.82;1714247;82;21782;-73
2022/09/04 01:23:48;;;;;;;38.58;20.52;;;;;;;8.18;100.00;100044.08;1711945;82;20892;-72
2022/09/04 01:26:43;;;;;;;42.43;21.55;;;;;;;8.05;100.00;100036.57;1692341;81;20899;-73
2022/09/04 01:29:49;;;;;;;38.65;21.77;;;;;;;7.94;100.00;100036.66;1713613;82;20964;-72
2022/09/04 01:32:44;;;;;;;38.73;21.48;;;;;;;7.84;99.96;100042.75;1708243;82;20967;-72
2022/09/04 01:35:57;;;;;;;36.83;21.25;;;;;;;7.68;99.68;100039.87;1640766;82;20911;-72
2022/09/04 01:38:41;;;;;;;46.02;21.82;;;;;;;7.56;99.65;100037.48;1700783;82;20924;-73
2022/09/04 01:42:03;;;;;;;39.55;20.82;;;;;;;7.44;99.59;100047.98;1721965;82;20875;-73
2022/09/04 01:44:34;;;;;;;40.88;18.73;;;;;;;7.35;99.60;100049.12;1715247;82;21455;-72
2022/09/04 01:47:22;;;;;;;41.58;20.80;;;;;;;7.22;99.51;100041.55;1704903;82;21538;-72
2022/09/04 01:50:16;;;;;;;40.20;20.05;;;;;;;7.14;99.43;100042.13;1726855;81;21125;-73
2022/09/04 01:52:55;;;;;;;40.00;21.15;;;;;;;7.04;99.28;100040.27;1710386;82;21502;-72
2022/09/04 01:55:35;;;;;;;41.85;20.35;;;;;;;6.95;99.26;100035.94;1738444;82;21039;-73
2022/09/04 01:58:36;;;;;;;40.90;21.17;;;;;;;6.88;99.43;100034.09;1682949;82;21447;-72
2022/09/04 02:01:21;;;;;;;40.28;20.77;;;;;;;6.84;99.65;100045.30;1717614;83;20900;-72
2022/09/04 02:04:11;;;;;;;35.38;19.48;;;;;;;6.78;99.91;100037.41;1715029;82;21243;-72
2022/09/04 02:06:50;;;;;;;37.20;18.98;;;;;;;6.74;100.00;100039.05;1710211;82;20952;-72
2022/09/04 02:09:38;;;;;;;36.50;19.15;;;;;;;6.70;100.00;100049.70;1721345;82;21093;-69
2022/09/04 02:12:49;;;;;;;41.50;19.57;;;;;;;6.68;100.00;100049.71;1694808;82;21038;-69
2022/09/04 02:15:29;;;;;;;36.83;19.77;;;;;;;6.67;100.00;100043.98;1716477;82;20935;-69
2022/09/04 02:18:25;;;;;;;51.33;20.30;;;;;;;6.67;100.00;100054.91;1704213;82;20875;-71
2022/09/04 02:21:11;;;;;;;36.33;18.25;;;;;;;6.67;100.00;100054.35;1696639;83;20888;-69
2022/09/04 02:24:06;;;;;;;35.70;19.52;;;;;;;6.67;100.00;100050.81;1709705;82;20895;-70
2022/09/04 02:26:50;;;;;;;33.25;17.70;;;;;;;6.66;100.00;100047.27;1734475;81;20978;-68
2022/09/04 02:29:29;;;;;;;37.35;18.98;;;;;;;6.65;100.00;100048.91;1737103;82;21014;-70
2022/09/04 02:32:04;;;;;;;38.92;17.73;;;;;;;6.62;100.00;100044.27;1720578;82;21162;-71
2022/09/04 02:35:08;;;;;;;31.80;17.67;;;;;;;6.60;100.00;100040.19;1736272;82;20966;-71
2022/09/04 02:38:15;;;;;;;35.43;19.15;;;;;;;6.57;100.00;100037.47;1730396;82;20918;-72
2022/09/04 02:40:52;;;;;;;36.83;18.15;;;;;;;6.53;100.00;100050.02;1730666;82;20930;-69
2022/09/04 02:43:25;;;;;;;37.75;18.02;;;;;;;6.49;100.00;100050.85;1733298;82;20967;-69
2022/09/04 02:46:06;;;;;;;35.92;17.90;;;;;;;6.42;100.00;100048.41;1710004;82;21119;-70
2022/09/04 02:48:44;;;;;;;36.90;18.80;;;;;;;6.37;100.00;100051.69;1661904;83;21004;-70
2022/09/04 02:51:38;;;;;;;40.48;18.52;;;;;;;6.31;100.00;100052.28;1717880;82;21517;-70
2022/09/04 02:54:32;;;;;;;36.75;18.48;;;;;;;6.25;100.00;100058.28;1659297;84;20992;-70
2022/09/04 02:57:23;;;;;;;34.03;16.87;;;;;;;6.18;100.00;100055.02;1721273;82;20857;-70
2022/09/04 03:00:13;;;;;;;36.53;17.80;;;;;;;6.11;100.00;100049.03;1704597;82;22080;-71
2022/09/04 03:02:44;;;;;;;35.55;18.37;;;;;;;6.04;100.00;100055.30;1708704;82;20936;-71
2022/09/04 03:05:22;;;;;;;40.30;18.32;;;;;;;5.98;100.00;100059.66;1718314;82;21054;-71
2022/09/04 03:08:26;;;;;;;30.50;18.02;;;;;;;5.93;100.00;100061.84;1699347;83;21062;-71
2022/09/04 03:11:01;;;;;;;35.10;17.90;;;;;;;5.89;100.00;100068.38;1708780;83;21518;-70
2022/09/04 03:14:04;;;;;;;34.08;18.23;;;;;;;5.86;100.00;100072.98;1711261;83;21552;-71
2022/09/04 03:16:46;;;;;;;35.08;17.62;;;;;;;5.82;100.00;100075.97;1716311;81;21518;-71
2022/09/04 03:19:40;;;;;;;52.62;18.75;;;;;;;5.81;100.00;100074.34;1709203;81;20920;-71
2022/09/04 03:22:30;;;;;;;34.92;18.70;;;;;;;5.80;100.00;100068.61;1709035;82;21014;-73
2022/09/04 03:25:05;;;;;;;43.75;18.77;;;;;;;5.78;100.00;100061.25;1696625;82;21000;-72
2022/09/04 03:27:32;;;;;;;74.53;20.17;;;;;;;5.78;100.00;100066.70;1700162;83;21147;-71
2022/09/04 03:30:09;;;;;;;91.63;20.00;;;;;;;5.78;100.00;100068.61;1678305;84;21075;-68
2022/09/04 03:33:04;;;;;;;101.40;21.80;;;;;;;5.77;100.00;100069.73;1679647;84;21033;-71
2022/09/04 03:36:10;;;;;;;84.40;19.73;;;;;;;5.75;100.00;100062.38;1667561;85;21044;-72
2022/09/04 03:38:45;;;;;;;83.07;20.82;;;;;;;5.74;100.00;100061.56;1676591;85;21583;-70
2022/09/04 03:41:28;;;;;;;55.05;19.37;;;;;;;5.74;100.00;100061.56;1693500;84;21168;-69
2022/09/04 03:44:30;;;;;;;43.48;18.05;;;;;;;5.74;100.00;100065.64;1715909;82;21025;-69
2022/09/04 03:47:05;;;;;;;40.33;18.30;;;;;;;5.76;100.00;100068.09;1711599;83;20908;-69
2022/09/04 03:50:16;;;;;;;38.30;18.32;;;;;;;5.76;100.00;100072.19;1714400;83;20987;-71
2022/09/04 03:53:13;;;;;;;37.90;18.85;;;;;;;5.78;100.00;100074.87;1716133;83;20891;-71
2022/09/04 03:55:59;;;;;;;34.83;18.25;;;;;;;5.81;100.00;100082.51;1716256;83;21262;-71
2022/09/04 03:58:48;;;;;;;35.23;18.27;;;;;;;5.81;100.00;100075.70;1716630;83;21435;-70
2022/09/04 04:01:40;;;;;;;35.98;18.35;;;;;;;5.82;100.00;100084.14;1711489;83;21448;-70
2022/09/04 04:04:47;;;;;;;34.33;17.47;;;;;;;5.87;100.00;100080.06;1712596;82;20948;-69
2022/09/04 04:07:46;;;;;;;40.48;19.02;;;;;;;5.94;100.00;100075.73;1711124;83;20971;-72
2022/09/04 04:10:44;;;;;;;43.45;18.92;;;;;;;6.06;100.00;100075.47;1710351;83;21203;-70
2022/09/04 04:13:33;;;;;;;44.53;20.35;;;;;;;6.18;100.00;100074.65;1708312;84;20959;-70
2022/09/04 04:16:13;;;;;;;40.90;18.82;;;;;;;6.31;100.00;100079.55;1708224;83;20987;-70
2022/09/04 04:19:02;;;;;;;44.90;20.37;;;;;;;6.44;100.00;100085.77;1703091;82;20900;-70
2022/09/04 04:22:18;;;;;;;46.48;22.52;;;;;;;6.55;100.00;100085.20;1681357;83;21035;-71
2022/09/04 04:25:35;;;;;;;62.08;21.85;;;;;;;6.68;100.00;100086.55;1642714;85;21260;-84
2022/09/04 04:28:48;;;;;;;76.53;22.65;;;;;;;6.87;100.00;100093.05;1688976;84;21552;-83
2022/09/04 04:31:21;;;;;;;55.38;23.87;;;;;;;7.02;100.00;100086.14;1684891;84;20932;-82
2022/09/04 04:34:00;;;;;;;56.83;23.00;;;;;;;7.16;100.00;100088.53;1687691;84;21007;-72
2022/09/04 04:37:08;;;;;;;55.05;24.40;;;;;;;7.31;100.00;100093.11;1682255;82;20951;-72
2022/09/04 04:39:56;;;;;;;58.25;24.85;;;;;;;7.44;100.00;100093.05;1679086;84;21261;-76
2022/09/04 04:42:37;;;;;;;58.85;24.95;;;;;;;7.60;100.00;100095.38;1681713;84;20982;-74
2022/09/04 04:48:17;;;;;;;39.03;18.92;;;;;;;7.95;100.00;100089.41;1680090;84;20960;-71
2022/09/04 04:51:30;;;;;;;38.53;19.95;;;;;;;8.16;100.00;100094.95;1701063;83;20902;-72
2022/09/04 04:54:14;;;;;;;38.48;19.10;;;;;;;8.37;100.00;100093.45;1696326;83;21344;-71
2022/09/04 04:57:18;;;;;;;40.70;17.23;;;;;;;8.64;100.00;100091.55;1693633;84;20985;-69
2022/09/04 05:00:20;;;;;;;31.02;14.70;;;;;;;8.87;100.00;100098.94;1672828;84;20958;-68
2022/09/04 05:03:18;;;;;;;26.23;12.00;;;;;;;9.10;100.00;100106.34;1700685;83;20962;-71
2022/09/04 05:06:12;;;;;;;22.00;11.93;;;;;;;9.32;100.00;100100.28;1697819;84;20957;-69
2022/09/04 05:08:53;;;;;;;20.52;10.55;;;;;;;9.56;100.00;100098.87;1690643;84;21295;-70
2022/09/04 05:11:29;;;;;;;18.20;9.35;;;;;;;9.78;100.00;100107.88;1685002;84;20954;-73
2022/09/04 05:14:37;;;;;;;20.75;8.95;;;;;;;10.00;100.00;100112.73;1701508;84;21480;-76
2022/09/04 05:17:41;;;;;;;16.12;9.30;;;;;;;10.19;99.50;100119.86;1697690;84;20978;-71
2022/09/04 05:20:39;;;;;;;17.80;8.78;;;;;;;10.44;97.29;100121.91;1690899;84;20920;-74
2022/09/04 05:23:21;;;;;;;17.60;8.18;;;;;;;10.74;96.97;100119.17;1685481;84;21783;-69
2022/09/04 05:26:05;;;;;;;16.85;8.83;;;;;;;11.03;95.08;100121.63;1687124;84;20959;-69
2022/09/04 05:28:48;;;;;;;28.40;9.08;;;;;;;11.26;92.79;100117.86;1683255;84;21003;-68
2022/09/04 05:31:53;;;;;;;13.75;8.03;;;;;;;11.49;92.03;100125.63;1692996;83;21072;-69
2022/09/04 05:34:37;;;;;;;15.05;8.15;;;;;;;11.72;89.42;100130.61;1718571;83;21494;-69
2022/09/04 05:37:14;;;;;;;16.75;8.30;;;;;;;11.88;88.75;100132.73;1715324;83;21157;-69
2022/09/04 05:40:05;;;;;;;16.73;7.40;;;;;;;12.02;87.06;100133.27;1698253;83;21551;-71
2022/09/04 05:43:06;;;;;;;13.58;8.80;;;;;;;12.16;85.05;100122.42;1683345;84;21021;-71
2022/09/04 05:46:11;;;;;;;24.82;8.10;;;;;;;12.34;83.59;100131.63;1663922;84;21039;-70
2022/09/04 05:48:58;;;;;;;17.48;8.50;;;;;;;12.47;82.91;100130.75;1580317;89;21164;-70
2022/09/04 05:52:02;;;;;;;13.75;7.67;;;;;;;12.66;81.29;100139.38;1576938;89;21482;-69
2022/09/04 05:54:58;;;;;;;15.38;7.85;;;;;;;12.82;80.71;100141.95;1644320;84;20985;-70
2022/09/04 05:57:54;;;;;;;24.63;7.60;;;;;;;12.99;79.00;100138.47;1678042;84;21164;-70
2022/09/04 06:00:21;;;;;;;15.45;6.75;;;;;;;13.12;77.17;100141.13;1670367;84;21048;-74
2022/09/04 06:03:20;;;;;;;12.37;6.78;;;;;;;13.27;76.16;100137.73;1667567;84;21798;-70
2022/09/04 06:06:13;;;;;;;16.23;6.95;;;;;;;13.35;75.43;100142.42;1681450;84;21137;-72
2022/09/04 06:09:06;;;;;;;11.70;6.62;;;;;;;13.44;73.72;100135.00;1682620;84;21048;-72
2022/09/04 06:11:54;;;;;;;16.73;6.72;;;;;;;13.55;73.16;100140.46;1684764;84;20976;-71
2022/09/04 06:15:14;;;;;;;22.07;6.90;;;;;;;13.65;71.99;100152.58;1682442;84;21008;-71
2022/09/04 06:17:56;;;;;;;12.68;6.30;;;;;;;13.76;70.35;100153.09;1689349;83;20953;-70
2022/09/04 06:20:47;;;;;;;11.90;6.83;;;;;;;13.85;71.10;100156.11;1679089;83;21105;-70
2022/09/04 06:23:48;;;;;;;11.93;5.87;;;;;;;14.00;71.20;100154.79;1684855;84;21487;-70
2022/09/04 06:26:46;;;;;;;17.65;6.33;;;;;;;14.15;69.92;100152.13;1695360;84;20975;-71
2022/09/04 06:29:34;;;;;;;10.90;5.85;;;;;;;14.31;68.97;100162.92;1674784;84;21110;-71
2022/09/04 06:32:29;;;;;;;10.18;5.62;;;;;;;14.44;67.87;100159.78;1691799;84;36335;-72
2022/09/04 06:35:25;;;;;;;11.33;5.12;;;;;;;14.54;66.62;100158.84;1671462;84;21113;-71
2022/09/04 06:38:06;;;;;;;12.85;4.58;;;;;;;14.67;65.76;100156.23;1689725;84;21024;-71
2022/09/04 06:40:48;;;;;;;10.93;5.05;;;;;;;14.80;65.34;100155.23;1623908;87;21046;-69
2022/09/04 06:43:41;;;;;;;8.83;4.25;;;;;;;14.96;64.71;100160.47;1639224;87;21019;-74
2022/09/04 06:46:39;;;;;;;11.38;4.22;;;;;;;15.10;63.91;100155.52;1641082;86;21467;-73
2022/09/04 06:49:35;;;;;;;7.75;4.42;;;;;;;15.26;63.44;100150.82;1588677;87;21150;-74
2022/09/04 06:52:37;;;;;;;8.95;3.90;;;;;;;15.41;62.97;100157.98;1638721;86;21701;-73
2022/09/04 06:55:29;;;;;;;11.22;3.75;;;;;;;15.59;62.23;100160.70;1637864;86;21608;-70
2022/09/04 06:58:22;;;;;;;14.70;3.75;;;;;;;15.76;61.57;100157.23;1639632;87;21459;-71
2022/09/04 07:00:55;;;;;;;;;;;;;;;15.92;60.80;100145.56;1655148;86;20955;-79
2022/09/04 07:03:28;;;;;;;;;;;;;;;16.08;59.88;100154.89;1698661;83;21096;-70
2022/09/04 07:06:30;;;;;;;27.67;3.52;;;;;;;16.19;60.38;100160.23;1692155;83;20128;-70
2022/09/04 07:09:31;;;;;;;7.85;3.42;;;;;;;16.35;58.18;100158.47;1695232;83;20987;-74
2022/09/04 07:12:32;;;;;;;5.17;3.30;;;;;;;16.47;57.16;100156.33;1665971;83;21048;-71
2022/09/04 07:15:30;;;;;;;3.85;2.42;;;;;;;16.57;57.43;100161.45;1607488;87;21210;-75
2022/09/04 07:18:28;;;;;;;7.53;2.90;;;;;;;16.72;56.68;100161.42;1668259;83;21115;-73
2022/09/04 07:21:26;;;;;;;4.83;3.05;;;;;;;16.87;56.40;100160.75;1663268;83;21018;-71
2022/09/04 07:24:31;;;;;;;6.03;3.77;;;;;;;16.98;55.20;100153.61;1665584;84;21429;-69
2022/09/04 07:27:34;;;;;;;9.50;2.90;;;;;;;17.00;55.78;100158.23;1672439;84;21019;-69
2022/09/04 07:30:06;;;;;;;7.05;2.90;;;;;;;17.13;55.38;100149.36;1660674;83;21034;-70
2022/09/04 07:32:58;;;;;;;7.05;3.35;;;;;;;17.32;55.31;100152.97;1660564;84;21251;-70
2022/09/04 07:35:33;;;;;;;4.85;2.72;;;;;;;17.42;54.27;100156.06;1674809;84;21082;-70
2022/09/04 07:38:21;;;;;;;5.47;2.72;;;;;;;17.46;53.70;100157.56;1692143;83;20891;-69
2022/09/04 07:41:15;;;;;;;5.47;2.65;;;;;;;17.50;53.60;100161.27;1675058;84;21013;-68
2022/09/04 07:44:14;;;;;;;3.85;2.40;;;;;;;17.47;53.31;100157.80;1664602;84;21045;-69
2022/09/04 07:46:56;;;;;;;8.90;3.02;;;;;;;17.43;53.55;100156.30;1636665;85;21845;-74
2022/09/04 07:49:36;;;;;;;5.55;2.60;;;;;;;17.40;52.94;100161.73;1699205;83;20992;-72
2022/09/04 07:52:38;;;;;;;4.78;2.25;;;;;;;17.36;51.67;100157.45;1705206;83;20989;-73
2022/09/04 07:55:30;;;;;;;4.00;2.02;;;;;;;17.45;50.85;100161.50;1686299;83;21065;-75
2022/09/04 07:58:19;;;;;;;7.58;2.50;;;;;;;17.40;48.61;100162.53;1686734;83;20951;-72
2022/09/04 08:01:12;;;;;;;126.10;10.88;;;;;;;17.22;50.33;100157.00;1699843;83;21123;-72
2022/09/04 08:04:11;;;;;;;11.15;4.65;;;;;;;17.35;50.40;100157.79;1694574;83;20969;-71
2022/09/04 08:06:49;;;;;;;6.47;2.45;;;;;;;17.86;50.66;100159.66;1723847;82;21514;-74
2022/09/04 08:09:47;;;;;;;5.92;2.70;;;;;;;18.22;49.02;100162.91;1706505;83;21606;-73
2022/09/04 08:12:56;;;;;;;9.33;2.55;;;;;;;18.20;48.67;100161.88;1683346;84;21016;-72
2022/09/04 08:15:56;;;;;;;2.75;1.80;;;;;;;18.02;48.48;100165.50;1690103;84;21160;-72
2022/09/04 08:18:44;;;;;;;3.42;1.82;;;;;;;18.14;48.46;100161.89;1668825;84;21015;-76
2022/09/04 08:21:16;;;;;;;3.70;1.60;;;;;;;18.73;47.55;100158.43;1669029;84;21573;-72
2022/09/04 08:24:07;;;;;;;3.92;1.80;;;;;;;19.27;46.04;100162.02;1682501;84;21075;-73
2022/09/04 08:27:15;;;;;;;9.78;1.50;;;;;;;19.52;44.28;100160.70;1678293;84;21287;-73
2022/09/04 08:29:53;;;;;;;9.78;1.90;;;;;;;19.50;41.62;100158.02;1626802;85;21461;-73
2022/09/04 08:32:58;;;;;;;11.18;2.10;;;;;;;19.65;42.26;100159.39;1674078;84;20877;-73
2022/09/04 08:35:56;;;;;;;11.80;1.80;;;;;;;19.72;41.89;100149.00;1699386;84;21075;-73
2022/09/04 08:38:41;;;;;;;3.75;1.90;;;;;;;19.72;41.60;100158.75;1684270;84;21006;-72
2022/09/04 08:41:24;;;;;;;2.35;1.75;;;;;;;20.10;40.42;100156.64;1682562;83;21062;-75
2022/09/04 08:44:14;;;;;;;10.63;2.20;;;;;;;20.72;38.86;100158.34;1688125;82;21164;-73
2022/09/04 08:47:00;;;;;;;3.20;1.60;;;;;;;21.13;36.51;100155.87;1702180;84;21548;-73
2022/09/04 08:50:23;;;;;;;3.50;1.87;;;;;;;21.17;36.31;100159.54;1705616;83;20978;-73
2022/09/04 08:52:57;;;;;;;5.03;1.70;;;;;;;21.25;37.06;100151.53;1704071;83;21028;-73
2022/09/04 08:55:44;;;;;;;2.02;1.50;;;;;;;21.70;36.26;100147.05;1701499;82;21473;-73
2022/09/04 08:58:21;;;;;;;2.87;1.92;;;;;;;22.03;34.18;100147.73;1706706;83;21152;-73
2022/09/04 09:00:56;;;;;;;4.45;2.25;;;;;;;21.93;34.35;100141.41;1701661;83;20970;-73
2022/09/04 09:03:59;;;;;;;6.30;2.30;;;;;;;21.52;34.20;100148.76;1701820;83;21013;-73
2022/09/04 09:07:06;;;;;;;11.78;2.72;;;;;;;21.03;34.99;100156.49;1702003;84;20907;-73
2022/09/04 09:09:59;;;;;;;8.83;2.15;;;;;;;20.40;36.90;100156.30;1701816;83;20985;-73
2022/09/04 09:13:04;;;;;;;4.85;2.05;;;;;;;19.92;37.30;100150.67;1690236;83;21160;-71
2022/09/04 09:15:58;;;;;;;7.50;3.05;;;;;;;19.63;37.40;100149.23;1674999;84;21087;-72
2022/09/04 09:18:56;;;;;;;5.92;2.12;;;;;;;19.53;38.44;100151.17;1696352;84;20935;-73
2022/09/04 09:21:48;;;;;;;5.85;2.30;;;;;;;19.83;37.58;100147.86;1684227;83;20985;-73
2022/09/04 09:24:59;;;;;;;12.07;2.10;;;;;;;20.39;37.93;100151.09;1677043;84;20940;-72
2022/09/04 09:28:08;;;;;;;9.48;2.35;;;;;;;21.01;36.35;100144.30;1691302;84;21243;-74
2022/09/04 09:31:37;;;;;;;12.65;2.02;;;;;;;21.63;34.66;100136.57;1684922;84;20900;-74
2022/09/04 09:34:32;;;;;;;7.40;2.30;;;;;;;21.97;34.76;100144.44;1690655;84;20987;-74
2022/09/04 09:37:52;;;;;;;5.37;2.00;;;;;;;22.13;33.55;100138.69;1683502;85;20908;-73
2022/09/04 09:40:35;;;;;;;7.60;1.80;;;;;;;21.83;33.93;100149.05;1688591;83;20932;-73
2022/09/04 09:43:32;;;;;;;6.33;2.30;;;;;;;21.36;34.54;100146.14;1682962;83;21138;-73
2022/09/04 09:46:31;;;;;;;4.15;2.17;;;;;;;20.99;34.97;100143.06;1684014;83;20896;-72
2022/09/04 09:49:20;;;;;;;5.80;2.17;;;;;;;20.81;35.22;100151.69;1689508;83;20904;-73
2022/09/04 09:52:25;;;;;;;6.55;1.85;;;;;;;21.14;34.55;100156.69;1689210;84;21484;-75
2022/09/04 09:55:20;;;;;;;9.05;1.75;;;;;;;21.45;34.32;100155.03;1679342;83;20986;-74
2022/09/04 09:58:26;;;;;;;4.05;1.80;;;;;;;21.65;34.35;100159.36;1677835;84;21230;-74
2022/09/04 10:01:18;;;;;;;4.78;1.57;;;;;;;21.72;32.89;100145.49;1699942;83;20946;-74
2022/09/04 10:04:30;;;;;;;4.30;1.80;;;;;;;21.94;33.71;100146.62;1682242;85;25420;-72
2022/09/04 10:07:09;;;;;;;2.37;1.62;;;;;;;22.23;32.61;100149.81;1675246;84;20941;-73
2022/09/04 10:10:11;;;;;;;3.58;1.70;;;;;;;22.13;32.44;100149.88;1684317;83;20900;-74
2022/09/04 10:13:16;;;;;;;6.95;1.92;;;;;;;21.71;33.06;100144.47;1692979;82;21895;-73
2022/09/04 10:16:14;;;;;;;8.25;1.80;;;;;;;21.20;34.38;100149.61;1701755;82;21511;-72
2022/09/04 10:19:15;;;;;;;5.37;1.80;;;;;;;20.73;34.80;100149.37;1704370;82;21030;-72
2022/09/04 10:21:56;;;;;;;89.15;4.92;;;;;;;20.51;35.68;100157.11;1703576;83;21022;-73
2022/09/04 10:24:40;;;;;;;4.67;1.55;;;;;;;20.85;34.52;100156.16;1733284;82;21057;-74
2022/09/04 10:27:40;;;;;;;2.10;1.77;;;;;;;21.46;35.54;100146.88;1724914;82;22238;-72
2022/09/04 10:30:21;;;;;;;4.87;1.77;;;;;;;;;;1723018;82;20888;-70
2022/09/04 10:33:08;;;;;;;12.73;2.12;;;;;;;23.18;32.22;100132.45;1728951;82;21640;-70
2022/09/04 10:36:00;;;;;;;2.92;1.70;;;;;;;23.82;32.40;100127.34;1706923;83;20943;-68
2022/09/04 10:38:35;;;;;;;6.17;1.80;;;;;;;24.26;29.18;100132.83;1707114;82;21400;-68
2022/09/04 10:41:28;;;;;;;4.60;2.30;;;;;;;24.42;30.02;100136.67;1714079;82;21235;-69
2022/09/04 10:44:09;;;;;;;15.53;1.82;;;;;;;24.37;29.38;100140.66;1722010;82;20986;-68
2022/09/04 10:47:10;;;;;;;10.98;2.55;;;;;;;24.06;30.08;100142.70;1713744;82;20968;-68
2022/09/04 10:49:48;;;;;;;8.80;2.45;;;;;;;23.58;29.47;100145.03;1721028;81;21002;-74
2022/09/04 10:52:48;;;;;;;7.92;1.92;;;;;;;22.82;30.64;100149.52;1730975;81;21051;-69
2022/09/04 10:55:41;;;;;;;4.90;2.10;;;;;;;22.31;31.90;100145.33;1696997;83;21140;-71
2022/09/04 10:58:38;;;;;;;8.03;2.20;;;;;;;22.01;30.88;100150.91;1649090;85;20963;-69
2022/09/04 11:01:44;;;;;;;3.52;1.67;;;;;;;21.70;32.31;100149.84;1667313;85;21581;-70
2022/09/04 11:05:02;;;;;;;5.92;1.57;;;;;;;21.43;32.24;100155.41;1666982;86;20963;-72
2022/09/04 11:07:57;;;;;;;2.37;1.50;;;;;;;21.19;32.84;100144.63;1676870;84;20967;-66
2022/09/04 11:10:55;;;;;;;2.52;1.45;;;;;;;21.04;32.91;100151.12;1667178;84;21620;-67
2022/09/04 11:13:59;;;;;;;7.15;1.60;;;;;;;20.99;33.21;100150.04;1672231;84;21561;-66
2022/09/04 11:16:37;;;;;;;3.98;1.17;;;;;;;20.86;33.83;100148.59;1666967;84;20967;-66
2022/09/04 11:19:25;;;;;;;2.40;1.10;;;;;;;20.84;33.64;100150.36;1671584;84;20936;-66
2022/09/04 11:22:33;;;;;;;2.33;1.17;;;;;;;20.82;32.85;100140.75;1651029;82;21098;-67
2022/09/04 11:25:38;;;;;;;3.65;1.30;;;;;;;20.70;33.37;100141.75;1715128;82;21350;-67
2022/09/04 11:28:43;;;;;;;1.45;1.10;;;;;;;20.64;34.01;100136.25;1706116;82;20939;-66
2022/09/04 11:31:14;;;;;;;2.40;1.10;;;;;;;20.65;32.82;100136.47;1705603;83;20991;-70
2022/09/04 11:34:00;;;;;;;2.15;1.12;;;;;;;20.59;33.44;100129.58;1697213;82;21107;-66
2022/09/04 11:37:10;;;;;;;1.90;1.20;;;;;;;20.69;33.13;100123.40;1696482;83;21606;-67
2022/09/04 11:40:15;;;;;;;1.45;0.95;;;;;;;21.20;32.99;100121.11;1699652;83;21316;-66
2022/09/04 11:43:02;;;;;;;2.55;1.10;;;;;;;21.92;29.46;100111.84;1654654;84;21541;-67
2022/09/04 11:45:59;;;;;;;2.12;1.02;;;;;;;22.41;29.60;100104.69;1683085;84;21077;-67
2022/09/04 11:48:49;;;;;;;1.57;1.00;;;;;;;23.11;28.40;100104.41;1697295;83;21029;-67
2022/09/04 11:51:59;;;;;;;6.47;1.40;;;;;;;23.57;26.92;100099.98;1687031;83;21073;-67
2022/09/04 11:55:06;;;;;;;4.45;1.60;;;;;;;23.91;26.40;100094.95;1685932;83;21274;-67
2022/09/04 11:57:56;;;;;;;5.25;1.57;;;;;;;23.94;26.75;100094.17;1681941;83;20957;-67
2022/09/04 12:00:23;;;;;;;3.30;1.30;;;;;;;23.55;26.66;100105.17;1683121;83;21061;-66
2022/09/04 12:03:26;;;;;;;3.35;1.10;;;;;;;23.07;27.69;100111.37;1690870;83;21008;-67
2022/09/04 12:06:29;;;;;;;1.27;0.90;;;;;;;22.69;28.22;100109.77;1694209;83;21053;-67
2022/09/04 12:09:34;;;;;;;;;;;;;;;22.63;28.59;100104.30;1698725;83;21155;-66
2022/09/04 12:12:32;;;;;;;1.45;0.80;;;;;;;23.08;28.59;100100.98;1702952;83;20146;-66
2022/09/04 12:15:32;;;;;;;1.07;0.93;;;;;;;23.75;26.98;100100.07;1694581;83;21563;-66
2022/09/04 12:18:32;;;;;;;2.45;1.20;;;;;;;24.52;24.83;100092.41;1696131;83;20942;-68
2022/09/04 12:21:05;;;;;;;3.17;1.20;;;;;;;24.83;25.22;100085.27;1693423;83;21555;-66
2022/09/04 12:23:57;;;;;;;1.80;1.22;;;;;;;25.04;24.30;100085.89;1697079;84;21355;-70
2022/09/04 12:26:38;;;;;;;1.42;0.90;;;;;;;25.10;24.66;100078.06;1675021;84;20978;-73
2022/09/04 12:29:57;;;;;;;3.67;1.32;;;;;;;25.48;25.17;100081.23;1689986;84;21036;-70
2022/09/04 12:32:37;;;;;;;7.08;1.55;;;;;;;25.66;24.59;100080.63;1697912;82;21086;-69
2022/09/04 12:35:44;;;;;;;2.62;1.20;;;;;;;25.15;24.40;100082.48;1735612;82;21021;-67
2022/09/04 12:38:46;;;;;;;8.78;1.70;;;;;;;24.52;25.37;100088.20;1723860;82;21083;-69
2022/09/04 12:41:19;;;;;;;4.17;1.37;;;;;;;23.85;26.07;100084.51;1705612;82;20954;-70
2022/09/04 12:44:00;;;;;;;3.87;1.50;;;;;;;23.19;26.82;100085.05;1701428;84;20997;-70
2022/09/04 12:46:45;;;;;;;4.60;1.15;;;;;;;22.63;27.71;100086.12;1701661;84;20958;-70
2022/09/04 12:49:37;;;;;;;5.87;1.37;;;;;;;22.24;29.06;100092.10;1701347;84;20902;-71
2022/09/04 12:52:38;;;;;;;1.85;1.27;;;;;;;22.08;29.27;100090.91;1701666;83;21146;-71
2022/09/04 12:55:29;;;;;;;2.75;1.50;;;;;;;22.47;29.05;100090.57;1701667;84;20958;-69
2022/09/04 12:58:22;;;;;;;4.07;1.90;;;;;;;23.37;27.79;100084.59;1701963;84;20953;-69
2022/09/04 13:01:21;;;;;;;4.42;1.25;;;;;;;23.86;26.51;100072.09;1701194;84;21522;-69
2022/09/04 13:03:57;;;;;;;2.35;1.00;;;;;;;24.00;25.96;100078.58;1701485;84;20922;-71
2022/09/04 13:06:49;;;;;;;3.10;1.42;;;;;;;24.21;25.94;100084.89;1701661;84;21934;-71
2022/09/04 13:09:21;;;;;;;3.58;0.93;;;;;;;24.50;25.79;100080.18;1701637;84;21438;-71
2022/09/04 13:12:09;;;;;;;1.60;1.00;;;;;;;25.03;24.82;100073.85;1699522;82;21001;-69
2022/09/04 13:14:49;;;;;;;1.90;1.25;;;;;;;25.62;24.66;100070.77;1699004;83;20961;-69
2022/09/04 13:17:42;;;;;;;2.00;1.17;;;;;;;25.74;24.16;100080.02;1700411;83;21052;-71